createdAt,value
2022-09-23T00:04:05.606Z,87.9
2022-09-23T00:09:54.295Z,87.3
2022-09-23T00:15:45.134Z,87.8
2022-09-23T00:21:35.648Z,88.1
2022-09-23T00:27:26.599Z,88.6
2022-09-23T00:33:17.009Z,89.4
2022-09-23T00:39:08.182Z,90
2022-09-23T00:44:59.034Z,90.5
2022-09-23T00:50:51.056Z,89.1
2022-09-23T00:56:41.726Z,91.2
2022-09-23T01:02:33.116Z,89.2
2022-09-23T01:08:25.655Z,91.1
2022-09-23T01:14:16.415Z,92.5
2022-09-23T01:20:07.249Z,92.6
2022-09-23T01:25:58.385Z,91
2022-09-23T01:31:50.183Z,92
2022-09-23T01:37:42.048Z,90.2
2022-09-23T01:43:33.075Z,90.5
2022-09-23T01:49:27.029Z,90.6
2022-09-23T01:55:17.692Z,90.4
2022-09-23T02:01:08.935Z,92
2022-09-23T02:07:01.426Z,91.1
2022-09-23T02:12:52.826Z,91.3
2022-09-23T02:18:44.117Z,90.8
2022-09-23T02:24:34.980Z,92.8
2022-09-23T02:30:25.638Z,93.1
2022-09-23T02:36:16.580Z,93.1
2022-09-23T02:42:07.303Z,91.8
2022-09-23T02:47:58.370Z,91.9
2022-09-23T02:53:49.083Z,93.4
2022-09-23T02:59:41.899Z,92.6
2022-09-23T03:05:32.518Z,91.9
2022-09-23T03:11:23.351Z,92.5
2022-09-23T03:17:15.672Z,92.4
2022-09-23T03:23:07.169Z,94
2022-09-23T03:28:58.384Z,93.3
2022-09-23T03:34:50.121Z,93.5
2022-09-23T03:40:39.760Z,92.4
2022-09-23T03:46:30.882Z,93.4
2022-09-23T03:52:23.207Z,92.5
2022-09-23T03:58:14.669Z,93.3
2022-09-23T04:04:05.361Z,96
2022-09-23T04:09:57.151Z,94.1
2022-09-23T04:15:48.195Z,93.4
2022-09-23T04:21:40.219Z,94.2
2022-09-23T04:27:37.841Z,95.4
2022-09-23T04:33:28.668Z,96.3
2022-09-23T04:39:19.289Z,96.9
2022-09-23T05:41:48.319Z,95.6
2022-09-23T05:54:07.816Z,96.6
2022-09-23T06:19:51.253Z,94.9
2022-09-23T06:26:03.754Z,94.2
2022-09-23T06:37:56.221Z,93.4
2022-09-23T06:43:52.842Z,93
2022-09-23T06:49:45.361Z,93.4
2022-09-23T06:55:52.584Z,92.8
2022-09-23T07:01:57.770Z,91.3
2022-09-23T07:07:55.920Z,92.1
2022-09-23T07:20:05.609Z,90
2022-09-23T07:38:52.368Z,88.6
2022-09-23T08:04:43.673Z,82.5
2022-09-23T08:29:00.763Z,77.9
2022-09-23T08:48:14.701Z,74.9
2022-09-23T08:54:18.677Z,74.2
2022-09-23T09:00:12.376Z,73.9
2022-09-23T09:06:04.489Z,73.4
2022-09-23T09:11:56.990Z,73.2
2022-09-23T09:18:02.021Z,73
2022-09-23T09:23:58.063Z,73.3
2022-09-23T09:29:51.970Z,73.2
2022-09-23T09:35:44.532Z,73.6
2022-09-23T09:41:35.966Z,72.2
2022-09-23T09:47:28.885Z,72.3
2022-09-23T09:53:19.440Z,71.4
2022-09-23T09:59:14.722Z,71.2
2022-09-23T10:05:31.865Z,70.7
2022-09-23T10:11:24.436Z,70
2022-09-23T10:17:17.960Z,68
2022-09-23T10:23:09.939Z,68.2
2022-09-23T10:29:02.636Z,68.3
2022-09-23T10:40:59.075Z,65.4
2022-09-23T10:46:51.310Z,64.7
2022-09-23T10:52:42.719Z,65.8
2022-09-23T10:58:35.108Z,63.9
2022-09-23T11:04:26.676Z,62.8
2022-09-23T11:16:43.941Z,62
2022-09-23T11:22:41.672Z,60.6
2022-09-23T11:28:50.207Z,63.2
2022-09-23T11:40:52.050Z,60.9
2022-09-23T11:52:50.116Z,61.5
2022-09-23T11:59:30.411Z,58.6
2022-09-23T12:12:27.856Z,58
2022-09-23T12:18:27.715Z,58.1
2022-09-23T12:24:22.374Z,57.9
2022-09-23T12:30:14.055Z,56.6
2022-09-23T12:36:06.552Z,54.4
2022-09-23T12:42:10.034Z,49.6
2022-09-23T12:48:06.140Z,51
2022-09-23T12:54:01.417Z,50.8
2022-09-23T12:59:57.872Z,52.5
2022-09-23T13:05:55.225Z,52.8
2022-09-23T13:12:04.550Z,53.4
2022-09-23T13:18:23.132Z,52.9
2022-09-23T13:24:23.268Z,54.4
2022-09-23T13:30:29.968Z,57.8
2022-09-23T13:36:28.183Z,57.5
2022-09-23T13:42:22.548Z,57.6
2022-09-23T13:48:15.967Z,57.7
2022-09-23T13:54:08.608Z,57
2022-09-23T14:00:04.498Z,58.6
2022-09-23T14:06:05.373Z,60.4
2022-09-23T14:18:06.079Z,61.1
2022-09-23T14:23:57.245Z,60.6
2022-09-23T14:29:47.821Z,60.5
2022-09-23T14:35:42.963Z,61.1
2022-09-23T14:41:35.915Z,61.3
2022-09-23T14:47:27.822Z,60.2
2022-09-23T14:53:17.944Z,60.3
2022-09-23T14:59:08.788Z,61.7
2022-09-23T15:05:00.223Z,60.7
2022-09-23T15:10:53.637Z,61.2
2022-09-23T15:16:48.931Z,62.1
2022-09-23T15:22:43.360Z,62.1
2022-09-23T15:28:35.664Z,62.5
2022-09-23T15:34:27.519Z,64.3
2022-09-23T15:40:19.911Z,65.1
2022-09-23T15:46:12.118Z,64
2022-09-23T15:52:12.020Z,65.1
2022-09-23T16:04:39.744Z,66.3
2022-09-23T16:10:52.267Z,67.3
2022-09-23T16:41:43.502Z,73.3
2022-09-23T16:53:42.243Z,75.4
2022-09-23T17:13:36.275Z,78.8
2022-09-23T17:19:41.154Z,77.7
2022-09-23T17:25:34.132Z,78.9
2022-09-23T17:31:40.040Z,79.9
2022-09-23T17:37:35.913Z,79.8
2022-09-23T17:43:44.024Z,80.8
2022-09-23T17:49:38.399Z,80.2
2022-09-23T17:55:33.800Z,79.7
2022-09-23T18:01:25.125Z,79.6
2022-09-23T18:07:29.367Z,80.5
2022-09-23T18:13:38.320Z,81.3
2022-09-23T18:19:34.697Z,80.9
2022-09-23T18:25:42.139Z,81.9
2022-09-23T18:31:33.582Z,82.1
2022-09-23T18:37:27.131Z,82
2022-09-23T18:43:25.660Z,82.3
2022-09-23T18:49:34.581Z,82.8
2022-09-23T18:55:28.704Z,83.1
2022-09-23T19:01:19.256Z,84
2022-09-23T19:07:11.822Z,83.2
2022-09-23T19:13:10.008Z,83.5
2022-09-23T19:25:42.993Z,84.5
2022-09-23T19:38:46.163Z,84.8
2022-09-23T19:44:49.442Z,85.1
2022-09-23T19:50:40.508Z,85.5
2022-09-23T19:56:32.168Z,85.6
2022-09-23T20:02:38.204Z,85.6
2022-09-23T20:15:17.683Z,85.6
2022-09-23T20:21:20.702Z,85.8
2022-09-23T20:27:18.945Z,85.8
2022-09-23T20:40:10.839Z,85.6
2022-09-23T20:52:38.223Z,85.2
2022-09-23T21:16:53.775Z,89.6
2022-09-23T21:29:40.337Z,90
2022-09-23T21:43:44.407Z,90.5
